Aérodrome :
LOGIN :

S'inscrire | Disclaimer

   EN    FR    IT 

 










Légende :    VFR   VFR Marginal   IFR   IFR Intensif   IFR Très Intensif
Visi : 
Plafond : 
>= 8 km
>= 3000ft
5 à 8 km
1000 à 3000 ft
1500m à 5 km
500 à 1000 ft
800 à 1500m
200 à 500 ft
< 800m
< 200 ft
Symboles :   Orages  Brouillard  Fortes neiges  Fortes précipitations  Vent > 20 kt
SIGMETs :   Divers  Orages  Givrage  Turbulence  Onde Orograph.  Cendres Volcan.






- Altitude de l'aérodrome : 14 ft
- Code IATA : BRE


EDDW - Bremen Neuenland

DERNIER METAR :
  • 091820Z AUTO 13004KT 5000 BR BKN003 OVC016 M01/M01 Q1007 BECMG 4000

METARs EXPIRÉS :
  • 091750Z AUTO 15005KT 5000 BR BKN004 OVC012 M00/M01 Q1007 BECMG 4000
  • 091720Z AUTO 15005KT 5000 BR BKN005 OVC009 M00/M01 Q1007 BECMG 4000 BKN004
  • 091650Z AUTO 16004KT 5000 BR OVC006 M00/M01 Q1007 BECMG 4000
  • 091620Z AUTO 19005KT 160V220 6000 OVC004 M00/M01 Q1007 BECMG 4000

TAF TAF EDDW
Valide du 09 à 18h jusqu'au 10 à 18h UTC


091700Z 0918/1018 17005KT 6000 OVC005
TEMPO 0918/1010 VRB03KT 2000 BCFG OVC003
PROB40
TEMPO 0919/0923 SCT005
PROB30
TEMPO 0920/1009 0400 FZFG VV001
BECMG 1010/1012 SCT010
PROB40
TEMPO 1012/1018 BKN010



MET'MAP, la Météo Aéronautique d'un coup d'oeil ! - Copyright ORBIFLY Décembre 2007 - Disclaimer

ORBIFLY MET'MAP TEAM :

Programmation & Développement : Alexandra Zaïnal
Sur une idée originale de : Baudouin d'Aumeries
Soutien technique & logistique : Manuel Goepfert
Assistance : Marc-Olivier Méhu




SOURCES & CREDITS :

   NOAA